Data for 04/05/2007

Time Sea-Level Adjusted Pressure Absolute Pressure Temperature Relative Humidity Dew Point   
(mb) (inHg) (mb) (inHg) (C) (F) (%) (C) (F)
00:05 1022 30.18 851 25.13 -0.7 30.8 98 -0.9 30.3
00:10 1022 30.18 851 25.13 -0.7 30.8 98 -0.9 30.3
00:15 1022 30.18 851 25.13 -0.6 30.8 98 -0.9 30.4
00:20 1022 30.18 851 25.13 -0.6 30.9 99 -0.8 30.5
00:25 1022 30.18 851 25.13 -0.5 31.1 99 -0.7 30.7
00:30 1022 30.18 851 25.13 -0.5 31 98 -0.8 30.6
00:35 1022 30.18 851 25.13 -0.5 31.2 99 -0.7 30.8
00:40 1022 30.18 851 25.13 -0.5 31.2 99 -0.7 30.8
00:45 1022 30.18 851 25.13 -0.5 31.1 98 -0.7 30.7
00:50 1022 30.18 851 25.13 -0.5 31.1 98 -0.8 30.6
00:55 1022 30.18 851 25.13 -0.5 31.1 98 -0.8 30.6
01:00 1022 30.18 851 25.13 -0.5 31.1 98 -0.8 30.6
01:05 1022 30.18 851 25.13 -0.5 31.1 98 -0.8 30.6
01:10 1022 30.18 851 25.13 -0.4 31.2 98 -0.7 30.7
01:15 1022 30.18 851 25.13 -0.4 31.3 98 -0.7 30.7
01:20 1022 30.18 851 25.13 -0.4 31.3 98 -0.7 30.7
01:25 1022 30.18 851 25.13 -0.4 31.3 98 -0.6 30.8
01:30 1022 30.18 851 25.13 -0.4 31.3 98 -0.7 30.8
01:35 1022 30.18 851 25.13 -0.4 31.3 98 -0.7 30.8
01:40 1022 30.18 851 25.13 -0.4 31.3 98 -0.7 30.7
01:45 1022 30.18 851 25.13 -0.4 31.3 98 -0.7 30.8
01:50 1022 30.18 851 25.13 -0.3 31.4 98 -0.6 30.9
01:55 1022 30.18 851 25.13 -0.3 31.4 98 -0.6 30.9
02:00 1022 30.18 852 25.16 -0.3 31.4 98 -0.6 30.9
02:05 1022 30.18 852 25.16 -0.3 31.4 98 -0.6 30.9
02:10 1022 30.18 852 25.16 -0.4 31.4 98 -0.7 30.8
02:15 1022 30.18 852 25.16 -0.4 31.3 98 -0.7 30.8
02:20 1022 30.18 852 25.16 -0.4 31.3 98 -0.6 30.8
02:25 1022 30.18 852 25.16 -0.4 31.3 98 -0.6 30.8
02:30 1022 30.18 852 25.16 -0.4 31.2 98 -0.7 30.8
02:35 1022 30.18 852 25.16 -0.5 31.1 99 -0.7 30.8
02:40 1022 30.18 852 25.16 -0.5 31.1 99 -0.7 30.8
02:45 1022 30.18 852 25.16 -0.6 31 99 -0.7 30.7
02:50 1023 30.21 852 25.16 -0.5 31.1 99 -0.7 30.8
02:55 1023 30.21 852 25.16 -0.4 31.3 99 -0.6 31
03:00 1023 30.21 852 25.16 -0.4 31.3 99 -0.5 31
03:05 1023 30.21 852 25.16 -0.4 31.3 99 -0.5 31.1
03:10 1023 30.21 852 25.16 -0.3 31.4 99 -0.5 31.1
03:15 1023 30.21 852 25.16 -0.3 31.4 99 -0.5 31.1
03:20 1023 30.21 852 25.16 -0.3 31.4 99 -0.5 31
03:25 1023 30.21 852 25.16 -0.3 31.4 99 -0.5 31
03:30 1023 30.21 852 25.16 -0.4 31.3 99 -0.6 31
03:35 1023 30.21 852 25.16 -0.4 31.3 99 -0.5 31.1
03:40 1023 30.21 852 25.16 -0.4 31.3 99 -0.6 31
03:45 1023 30.21 852 25.16 -0.3 31.4 99 -0.5 31.2
03:50 1023 30.21 852 25.16 -0.3 31.4 99 -0.5 31.1
03:55 1023 30.21 852 25.16 -0.4 31.3 99 -0.6 31
04:00 1023 30.21 852 25.16 -0.3 31.4 99 -0.5 31.1
04:05 1023 30.21 852 25.16 -0.4 31.3 99 -0.5 31.1
04:10 1023 30.21 852 25.16 -0.4 31.3 99 -0.5 31
04:15 1023 30.21 852 25.16 -0.4 31.3 99 -0.5 31
04:20 1023 30.21 852 25.16 -0.4 31.3 99 -0.5 31
04:25 1023 30.21 852 25.16 -0.3 31.4 99 -0.5 31.2
04:30 1023 30.21 852 25.16 -0.3 31.4 99 -0.5 31.2
04:35 1023 30.21 852 25.16 -0.3 31.4 99 -0.5 31.2
04:40 1023 30.21 852 25.16 -0.3 31.4 99 -0.5 31.2
04:45 1023 30.21 852 25.16 -0.4 31.4 99 -0.5 31.1
04:50 1023 30.21 852 25.16 -0.3 31.4 99 -0.5 31.2
04:55 1023 30.21 852 25.16 -0.3 31.4 99 -0.5 31.2
05:00 1023 30.21 852 25.16 -0.3 31.4 99 -0.5 31.2
05:05 1023 30.21 852 25.16 -0.3 31.4 99 -0.4 31.2
05:10 1023 30.21 852 25.16 -0.2 31.6 99 -0.4 31.4
05:15 1023 30.21 852 25.16 -0.4 31.3 99 -0.5 31.1
05:20 1023 30.21 852 25.16 -0.5 31.2 99 -0.6 30.9
05:25 1023 30.21 852 25.16 -0.5 31.1 99 -0.7 30.7
05:30 1023 30.21 852 25.16 -0.5 31.1 99 -0.7 30.8
05:35 1023 30.21 852 25.16 -0.6 31 99 -0.7 30.7
05:40 1023 30.21 852 25.16 -0.6 31 99 -0.7 30.7
05:45 1023 30.21 852 25.16 -0.5 31.2 99 -0.7 30.8
05:50 1023 30.21 852 25.16 -0.4 31.3 98 -0.6 30.9
05:55 1023 30.21 852 25.16 -0.4 31.2 98 -0.7 30.8
06:00 1023 30.21 852 25.16 -0.5 31.2 98 -0.7 30.8
06:05 1023 30.21 852 25.16 -0.5 31.1 98 -0.8 30.6
06:10 1023 30.21 852 25.16 -0.6 31 98 -0.8 30.5
06:15 1023 30.21 852 25.16 -0.7 30.8 98 -0.9 30.4
06:20 1023 30.21 853 25.19 -0.7 30.8 98 -0.9 30.3
06:25 1023 30.21 853 25.19 -0.7 30.7 98 -1 30.3
06:30 1024 30.24 853 25.19 -0.7 30.7 98 -1 30.2
06:35 1024 30.24 853 25.19 -0.7 30.7 98 -1 30.2
06:40 1024 30.24 853 25.19 -0.7 30.7 98 -1 30.2
06:45 1024 30.24 853 25.19 -0.7 30.7 98 -1 30.1
06:50 1024 30.24 853 25.19 -0.7 30.8 98 -1 30.3
06:55 1024 30.24 853 25.19 -0.6 30.9 98 -0.9 30.4
07:00 1024 30.24 853 25.19 -0.6 30.9 98 -0.9 30.4
07:05 1024 30.24 853 25.19 -0.7 30.8 98 -1 30.2
07:10 1024 30.24 853 25.19 -0.7 30.7 98 -1 30.2
07:15 1024 30.24 853 25.19 -0.7 30.8 98 -1 30.2
07:20 1024 30.24 853 25.19 -0.5 31.1 98 -0.8 30.6
07:25 1024 30.24 853 25.19 -0.3 31.5 97 -0.7 30.8
07:30 1024 30.24 853 25.19 -0.1 31.7 97 -0.6 30.9
07:35 1024 30.24 854 25.22 -0.1 31.8 97 -0.5 31.1
07:40 1024 30.24 854 25.22 -0 32 97 -0.4 31.2
07:45 1024 30.24 854 25.22 -0 31.9 97 -0.4 31.3
07:50 1024 30.24 854 25.22 0 32 97 -0.4 31.3
07:55 1024 30.24 854 25.22 0.1 32.2 97 -0.3 31.5
08:00 1024 30.24 854 25.22 0.1 32.2 97 -0.4 31.3
08:05 1024 30.24 854 25.22 -0.1 31.8 97 -0.5 31
08:10 1025 30.27 854 25.22 -0.1 31.8 97 -0.6 30.9
08:15 1025 30.27 854 25.22 -0 32 97 -0.4 31.2
08:20 1025 30.27 854 25.22 -0.1 31.9 96 -0.7 30.8
08:25 1025 30.27 854 25.22 -0.3 31.5 96 -0.9 30.4
08:30 1025 30.27 854 25.22 -0.6 31 96 -1.2 29.9
08:35 1025 30.27 854 25.22 -0.7 30.8 96 -1.2 29.8
08:40 1025 30.27 854 25.22 -0.6 30.9 95 -1.3 29.7
08:45 1025 30.27 854 25.22 -0.7 30.7 96 -1.3 29.6
08:50 1025 30.27 854 25.22 -0.7 30.7 95 -1.4 29.5
08:55 1025 30.27 854 25.22 -0.8 30.6 95 -1.5 29.3
09:00 1025 30.27 854 25.22 -0.8 30.6 95 -1.5 29.3
09:05 1025 30.27 854 25.22 -0.6 30.8 94 -1.4 29.4
09:10 1025 30.27 854 25.22 -0.6 31 94 -1.4 29.5
09:15 1025 30.27 854 25.22 -0.5 31 93 -1.5 29.3
09:20 1025 30.27 854 25.22 -0.5 31.2 94 -1.3 29.6
09:25 1025 30.27 854 25.22 -0.4 31.3 94 -1.3 29.7
09:30 1025 30.27 854 25.22 -0.3 31.5 95 -1 30.2
09:35 1025 30.27 854 25.22 -0.1 31.8 95 -0.8 30.5
09:40 1025 30.27 855 25.25 0 32 95 -0.7 30.7
09:45 1025 30.27 855 25.25 0.1 32.1 95 -0.7 30.8
09:50 1025 30.27 855 25.25 0.1 32.2 95 -0.6 30.8
09:55 1025 30.27 855 25.25 0.3 32.5 94 -0.6 30.9
10:00 1025 30.27 855 25.25 0.3 32.6 93 -0.6 30.9
10:05 1025 30.27 855 25.25 0.4 32.6 93 -0.6 30.9
10:10 1025 30.27 855 25.25 0.4 32.7 93 -0.6 30.9
10:15 1025 30.27 855 25.25 0.4 32.7 94 -0.5 31
10:20 1025 30.27 855 25.25 0.4 32.8 92 -0.7 30.7
10:25 1025 30.27 855 25.25 0.3 32.5 91 -1 30.1
10:30 1025 30.27 855 25.25 0.3 32.6 88 -1.4 29.5
10:35 1025 30.27 855 25.25 0.4 32.7 87 -1.5 29.2
10:40 1025 30.27 855 25.25 0.4 32.7 87 -1.5 29.4
10:45 1026 30.3 855 25.25 0.3 32.6 88 -1.4 29.5
10:50 1026 30.3 855 25.25 0.4 32.8 87 -1.4 29.4
10:55 1026 30.3 855 25.25 0.1 32.1 88 -1.7 29
11:00 1026 30.3 855 25.25 0.2 32.4 88 -1.6 29.2
11:05 1026 30.3 855 25.25 0.4 32.7 87 -1.6 29.2
11:10 1026 30.3 855 25.25 0.6 33.1 85 -1.6 29.1
11:15 1026 30.3 855 25.25 0.7 33.3 85 -1.5 29.4
11:20 1026 30.3 855 25.25 1.1 33.9 83 -1.5 29.3
11:25 1026 30.3 855 25.25 1.3 34.4 82 -1.4 29.5
11:30 1026 30.3 855 25.25 1.7 35.1 79 -1.5 29.4
11:35 1026 30.3 855 25.25 1.9 35.5 79 -1.3 29.7
11:40 1026 30.3 855 25.25 1.5 34.6 81 -1.5 29.3
11:45 1026 30.3 855 25.25 1.3 34.4 81 -1.7 29
11:50 1026 30.3 855 25.25 1.4 34.5 81 -1.5 29.2
11:55 1026 30.3 855 25.25 1.6 34.8 78 -1.9 28.6
12:00 1026 30.3 855 25.25 1.4 34.5 79 -1.8 28.7
12:05 1026 30.3 855 25.25 1.7 35.1 81 -1.3 29.7
12:10 1026 30.3 855 25.25 1.8 35.2 82 -0.9 30.4
12:15 1026 30.3 855 25.25 1.9 35.3 84 -0.6 30.9
12:20 1026 30.3 855 25.25 2.2 36 82 -0.5 31.1
12:25 1026 30.3 855 25.25 2.4 36.4 81 -0.6 31
12:30 1026 30.3 855 25.25 1.9 35.4 83 -0.7 30.8
12:35 1026 30.3 855 25.25 1.6 34.8 85 -0.7 30.8
12:40 1026 30.3 855 25.25 2.1 35.8 81 -0.8 30.5
12:45 1025 30.27 855 25.25 2.6 36.7 77 -1 30.2
12:50 1025 30.27 855 25.25 3.3 38 75 -0.8 30.6
12:55 1025 30.27 855 25.25 3.5 38.3 75 -0.5 31.1
13:00 1025 30.27 855 25.25 3.7 38.7 74 -0.5 31.2
13:05 1025 30.27 855 25.25 4 39.2 71 -0.8 30.5
13:10 1025 30.27 855 25.25 3.5 38.3 74 -0.8 30.6
13:15 1025 30.27 855 25.25 3.7 38.6 73 -0.8 30.6
13:20 1025 30.27 855 25.25 3.7 38.6 74 -0.6 31
13:25 1025 30.27 855 25.25 3.3 37.9 73 -1 30.1
13:30 1025 30.27 855 25.25 3.9 38.9 72 -0.8 30.6
13:35 1025 30.27 854 25.22 4 39.1 71 -0.7 30.7
13:40 1025 30.27 854 25.22 3.7 38.7 73 -0.6 30.9
13:45 1025 30.27 854 25.22 3.4 38.1 76 -0.4 31.3
13:50 1025 30.27 854 25.22 3.5 38.4 76 -0.3 31.5
13:55 1025 30.27 854 25.22 3.4 38.2 77 -0.3 31.5
14:00 1025 30.27 854 25.22 3.8 38.9 75 -0.1 31.8
14:05 1025 30.27 854 25.22 4 39.2 76 0.1 32.2
14:10 1025 30.27 854 25.22 4.1 39.3 75 -0 32
14:15 1025 30.27 854 25.22 4.2 39.6 75 0.1 32.2
14:20 1025 30.27 854 25.22 4.6 40.2 72 -0.1 31.8
14:25 1025 30.27 854 25.22 5 40.9 69 -0.1 31.7
14:30 1025 30.27 854 25.22 4.3 39.8 77 0.6 33.1
14:35 1025 30.27 854 25.22 4.8 40.7 72 0.2 32.4
14:40 1025 30.27 854 25.22 5 41 73 0.6 33
14:45 1025 30.27 854 25.22 4.8 40.7 74 0.6 33.1
14:50 1025 30.27 854 25.22 4.3 39.8 76 0.5 32.8
14:55 1025 30.27 854 25.22 3.9 39 76 0.1 32.2
15:00 1025 30.27 854 25.22 4.1 39.4 76 0.3 32.5
15:05 1025 30.27 854 25.22 4.2 39.6 76 0.5 32.8
15:10 1025 30.27 854 25.22 4.5 40 75 0.4 32.7
15:15 1025 30.27 854 25.22 4.3 39.7 76 0.4 32.7
15:20 1025 30.27 854 25.22 5 40.9 73 0.5 32.8
15:25 1025 30.27 854 25.22 4.8 40.6 75 0.8 33.5
15:30 1025 30.27 854 25.22 4.8 40.6 76 0.9 33.6
15:35 1025 30.27 854 25.22 4.8 40.7 74 0.5 32.9
15:40 1025 30.27 854 25.22 5.1 41.3 72 0.5 32.9
15:45 1025 30.27 854 25.22 5.7 42.3 69 0.5 32.9
15:50 1025 30.27 854 25.22 6.1 43 70 1.1 34.1
15:55 1025 30.27 854 25.22 7.2 45 64 0.9 33.7
16:00 1025 30.27 854 25.22 7.1 44.7 66 1.2 34.2
16:05 1025 30.27 854 25.22 6.5 43.7 69 1.2 34.1
16:10 1025 30.27 854 25.22 6.8 44.2 66 0.8 33.5
16:15 1025 30.27 854 25.22 6.3 43.4 68 0.9 33.7
16:20 1025 30.27 854 25.22 6.6 43.9 69 1.3 34.4
16:25 1025 30.27 854 25.22 7.8 46.1 64 1.4 34.6
16:30 1025 30.27 854 25.22 8 46.4 64 1.6 34.9
16:35 1025 30.27 854 25.22 8.4 47.2 63 1.8 35.3
16:40 1025 30.27 854 25.22 8.6 47.5 62 1.7 35.1
16:45 1025 30.27 854 25.22 8.1 46.6 64 1.8 35.3
16:50 1025 30.27 854 25.22 7.2 45 68 1.7 35
16:55 1025 30.27 854 25.22 6.7 44.1 69 1.5 34.6
17:00 1025 30.27 854 25.22 6.4 43.5 72 1.6 34.9
17:05 1025 30.27 854 25.22 6.5 43.7 69 1.3 34.3
17:10 1025 30.27 854 25.22 6.6 43.8 69 1.4 34.5
17:15 1025 30.27 854 25.22 6.7 44 69 1.4 34.5
17:20 1024 30.24 854 25.22 6.4 43.5 72 1.7 35
17:25 1024 30.24 854 25.22 5.8 42.4 73 1.4 34.6
17:30 1024 30.24 854 25.22 5.6 42.1 74 1.2 34.2
17:35 1024 30.24 854 25.22 5.2 41.4 74 0.9 33.7
17:40 1024 30.24 854 25.22 5 41 75 0.9 33.7
17:45 1024 30.24 854 25.22 5.1 41.1 74 0.9 33.6
17:50 1025 30.27 854 25.22 5.5 41.9 72 0.8 33.5
17:55 1025 30.27 854 25.22 6 42.8 71 1.1 34
18:00 1025 30.27 854 25.22 6.3 43.4 70 1.2 34.1
18:05 1025 30.27 854 25.22 5.9 42.6 71 1 33.9
18:10 1025 30.27 854 25.22 4.8 40.7 75 0.8 33.4
18:15 1025 30.27 854 25.22 3.8 38.9 77 0.1 32.2
18:20 1025 30.27 854 25.22 3.4 38.1 78 -0 31.9
18:25 1025 30.27 854 25.22 3.5 38.2 78 -0.1 31.9
18:30 1025 30.27 854 25.22 3.4 38.1 78 -0 31.9
18:35 1025 30.27 854 25.22 3.1 37.7 79 -0.1 31.8
18:40 1025 30.27 854 25.22 2.9 37.2 80 -0.3 31.5
18:45 1025 30.27 854 25.22 2.6 36.7 80 -0.5 31.1
18:50 1025 30.27 854 25.22 2.4 36.4 80 -0.7 30.8
18:55 1025 30.27 854 25.22 2.2 36 81 -0.7 30.8
19:00 1025 30.27 854 25.22 2.2 35.9 81 -0.7 30.7
19:05 1025 30.27 854 25.22 2 35.7 81 -0.8 30.5
19:10 1025 30.27 854 25.22 1.9 35.4 82 -0.8 30.5
19:15 1025 30.27 855 25.25 1.7 35.1 82 -1 30.2
19:20 1025 30.27 855 25.25 1.5 34.8 82 -1.2 29.9
19:25 1025 30.27 855 25.25 1.5 34.6 82 -1.2 29.8
19:30 1025 30.27 855 25.25 1.4 34.6 82 -1.2 29.8
19:35 1025 30.27 855 25.25 1.3 34.3 82 -1.4 29.5
19:40 1025 30.27 855 25.25 1.2 34.1 83 -1.4 29.5
19:45 1026 30.3 855 25.25 1.1 34 84 -1.3 29.6
19:50 1026 30.3 855 25.25 1 33.8 84 -1.4 29.5
19:55 1026 30.3 855 25.25 0.9 33.5 84 -1.6 29.2
20:00 1026 30.3 855 25.25 0.8 33.4 84 -1.7 29
20:05 1026 30.3 855 25.25 0.5 32.9 86 -1.6 29
20:10 1026 30.3 855 25.25 0.3 32.5 86 -1.8 28.8
20:15 1026 30.3 855 25.25 0.2 32.3 86 -1.9 28.6
20:20 1026 30.3 855 25.25 0 32.1 86 -2 28.4
20:25 1026 30.3 855 25.25 -0.1 31.7 87 -2.1 28.3
20:30 1026 30.3 855 25.25 -0.3 31.5 87 -2.2 28
20:35 1026 30.3 855 25.25 -0.3 31.4 87 -2.3 27.9
20:40 1026 30.3 855 25.25 -0.5 31.2 88 -2.3 27.9
20:45 1026 30.3 855 25.25 -0.5 31.1 87 -2.3 27.8
20:50 1026 30.3 855 25.25 -0.5 31.1 87 -2.4 27.6
20:55 1026 30.3 856 25.28 -0.5 31.1 87 -2.4 27.7
21:00 1026 30.3 855 25.25 -0.5 31.1 87 -2.4 27.6
21:05 1026 30.3 856 25.28 -0.5 31.1 87 -2.5 27.6
21:10 1026 30.3 856 25.28 -0.5 31.1 86 -2.5 27.5
21:15 1027 30.33 856 25.28 -0.5 31.1 85 -2.7 27.1
21:20 1027 30.33 856 25.28 -0.5 31.1 84 -2.9 26.9
21:25 1027 30.33 856 25.28 -0.5 31 84 -3 26.7
21:30 1027 30.33 856 25.28 -0.6 31 83 -3 26.6
21:35 1027 30.33 856 25.28 -0.6 31 83 -3 26.5
21:40 1027 30.33 856 25.28 -0.6 30.8 83 -3.2 26.3
21:45 1027 30.33 856 25.28 -0.7 30.7 84 -3.2 26.3
21:50 1027 30.33 856 25.28 -0.8 30.6 83 -3.3 26.1
21:55 1027 30.33 856 25.28 -0.8 30.5 84 -3.3 26.1
22:00 1027 30.33 856 25.28 -0.9 30.5 83 -3.4 25.9
22:05 1027 30.33 856 25.28 -0.9 30.3 83 -3.5 25.7
22:10 1027 30.33 856 25.28 -1 30.2 83 -3.5 25.7
22:15 1027 30.33 856 25.28 -1 30.2 83 -3.5 25.7
22:20 1027 30.33 856 25.28 -1 30.2 83 -3.6 25.6
22:25 1027 30.33 856 25.28 -1.2 29.9 83 -3.6 25.5
22:30 1027 30.33 856 25.28 -1.2 29.8 84 -3.7 25.4
22:35 1027 30.33 856 25.28 -1.3 29.7 84 -3.7 25.4
22:40 1027 30.33 856 25.28 -1.4 29.5 84 -3.7 25.4
22:45 1027 30.33 856 25.28 -1.4 29.4 84 -3.8 25.2
22:50 1027 30.33 856 25.28 -1.5 29.4 84 -3.8 25.1
22:55 1027 30.33 856 25.28 -1.5 29.3 83 -4 24.9
23:00 1027 30.33 856 25.28 -1.5 29.3 83 -4.1 24.7
23:05 1027 30.33 856 25.28 -1.5 29.3 82 -4.1 24.6
23:10 1027 30.33 856 25.28 -1.6 29.1 82 -4.2 24.4
23:15 1027 30.33 856 25.28 -1.6 29.1 83 -4.2 24.4
23:20 1027 30.33 856 25.28 -1.7 29 83 -4.2 24.4
23:25 1027 30.33 856 25.28 -1.7 28.9 83 -4.2 24.4
23:30 1027 30.33 856 25.28 -1.7 28.9 82 -4.4 24.2
23:35 1027 30.33 856 25.28 -1.8 28.8 83 -4.4 24.1
23:40 1027 30.33 856 25.28 -1.8 28.8 82 -4.5 23.9
23:45 1027 30.33 856 25.28 -1.8 28.8 82 -4.5 24
23:50 1027 30.33 856 25.28 -1.8 28.7 82 -4.5 23.9
23:55 1027 30.33 856 25.28 -1.9 28.6 83 -4.5 23.9
24:00 1027 30.33 856 25.28 -2 28.5 83 -4.4 24.1